Triangle, New York
Current Conditions -  °F | °C
As of 2:53 AM on Saturday 29 Nov 2014 (Local Time) from KBGM Reporting Station
Few Clouds Few Clouds  
Wind Chill: 11°   Ceiling: Unl
Heat Index: 18°   Visibility: 10mi
Dew Point:   Wind: 5mph
Humidity: 68%   Direction: 250°WSW
Pressure: 30.17"   Gusts: NA
Location:  42.3542°N, 75.7469°W
Report Text: KBGM 290753Z 25004KT 10SM FEW120 M08/M13 A3017 RMK AO2 SLP242 T10781128
Loading
Personal Weather Stations






























Interactive Weather Map New forecast layout! Learn more

10-Day Weather Forecast

Advertisements
Track Severe Weather on mobile